Terminal Aerodrome Forecast
Issued by NWS Wilmington, OH

Current Version | Previous Version | Graphics & Text | Print | Product List | Glossary On
Versions: 1 2 3 4 5 6 7 8 9 10 11 12 13 14 15 16 17 18 19
490
FTUS41 KILN 160138 AAB
TAFILN
TAF AMD
KILN 160138Z 1602/1624 32010KT P6SM BKN035
     FM161300 32008KT P6SM BKN050
     FM161800 31007KT P6SM FEW050=

USA.gov is the U.S. government's official web portal to all federal, state and local government web resources and services.